Pagina principale
METAR-TAF:

METAR-TAF

Aeroporti :

Bari, Italia

Aeroporto di Bari-Palese

latitudine: 41-08N, longitudine: 016-47E, altezza: 34 m

Osservazione

Il bollettino è stato emesso 22 minuti fa, alle 07:50 UTC
Vento 11 kt da nord/nord-ovest
Temperature 21°C
Umidità 56%
Pressione 1017 hPa
Visibilità 10 km o più
nessuna nube inferiore a 1500 m e nessun cumulonembo

METAR: LIBD 270750Z 33011KT CAVOK 21/12 Q1017

Ora: 10:12 (08:12 UTC)

Previsione

Il bollettino è stato emesso 3 ore e 12 minuti fa, alle 05:00 UTC
Previsione valida dal 27 alle 06 UTC al 28 alle 06 UTC
Vento 12 kt da nord-ovest
Visibilità 10 km o più
nessuna nube inferiore a 1500 m e nessun cumulonembo
Evoluzione graduale
dal 27 alle 08 UTC al 27 alle 10 UTC
Vento 14 kt da nord
Evoluzione graduale
dal 27 alle 18 UTC al 27 alle 20 UTC
Vento 10 kt da ovest/nord-ovest

TAF: LIBD 270500Z 2706/2806 31012KT CAVOK BECMG 2708/2710 01014KT BECMG 2718/2720 30010KT

Osservazioni e previsioni meteorologiche di più di 4000 aeroporti (messaggi METAR e TAF).

Le stazioni disponibili sono rappresentate dai dischi gialli e rossi sulla carta.

Puntare il mouse per vedere il nome della stazione.

Clicca sopra per visualizzare le osservazioni e previsioni meteorologiche.

Per cambiare la mappa : fare clic sui pulsanti verdi con una croce nera per ingrandire, il pulsante verde con un trattino per diminuire, o sulla freccia verde per le mappe adiacenti.


METAR-TAF: